sensor_id;sensor_type;location;lat;lon;timestamp;temperature;humidity
48836;DHT22;62581;47.342;7.908;2022-09-30T00:01:18;10.50;99.90
48836;DHT22;62581;47.342;7.908;2022-09-30T00:03:45;10.40;99.90
48836;DHT22;62581;47.342;7.908;2022-09-30T00:06:14;10.40;99.90
48836;DHT22;62581;47.342;7.908;2022-09-30T00:08:40;10.50;99.90
48836;DHT22;62581;47.342;7.908;2022-09-30T00:11:08;10.50;99.90
48836;DHT22;62581;47.342;7.908;2022-09-30T00:13:38;10.60;99.90
48836;DHT22;62581;47.342;7.908;2022-09-30T00:16:06;10.60;99.90
48836;DHT22;62581;47.342;7.908;2022-09-30T00:18:35;10.60;99.90
48836;DHT22;62581;47.342;7.908;2022-09-30T00:21:03;10.70;99.90
48836;DHT22;62581;47.342;7.908;2022-09-30T00:23:29;10.70;99.90
48836;DHT22;62581;47.342;7.908;2022-09-30T00:25:56;10.70;99.90
48836;DHT22;62581;47.342;7.908;2022-09-30T00:28:24;10.70;99.90
48836;DHT22;62581;47.342;7.908;2022-09-30T00:30:50;10.80;99.90
48836;DHT22;62581;47.342;7.908;2022-09-30T00:33:17;10.80;99.90
48836;DHT22;62581;47.342;7.908;2022-09-30T00:35:45;10.80;99.90
48836;DHT22;62581;47.342;7.908;2022-09-30T00:38:12;10.80;99.90
48836;DHT22;62581;47.342;7.908;2022-09-30T00:40:39;10.80;99.90
48836;DHT22;62581;47.342;7.908;2022-09-30T00:43:08;10.80;99.90
48836;DHT22;62581;47.342;7.908;2022-09-30T00:45:36;10.70;99.90
48836;DHT22;62581;47.342;7.908;2022-09-30T00:48:04;10.70;99.90
48836;DHT22;62581;47.342;7.908;2022-09-30T00:50:33;10.70;99.90
48836;DHT22;62581;47.342;7.908;2022-09-30T00:53:05;10.60;99.90
48836;DHT22;62581;47.342;7.908;2022-09-30T00:55:35;10.60;99.90
48836;DHT22;62581;47.342;7.908;2022-09-30T00:58:05;10.60;99.90
48836;DHT22;62581;47.342;7.908;2022-09-30T01:00:34;10.70;99.90
48836;DHT22;62581;47.342;7.908;2022-09-30T01:03:00;10.60;99.90
48836;DHT22;62581;47.342;7.908;2022-09-30T01:05:27;10.60;99.90
48836;DHT22;62581;47.342;7.908;2022-09-30T01:07:57;10.60;99.90
48836;DHT22;62581;47.342;7.908;2022-09-30T01:10:25;10.60;99.90
48836;DHT22;62581;47.342;7.908;2022-09-30T01:12:52;10.60;99.90
48836;DHT22;62581;47.342;7.908;2022-09-30T01:15:19;10.60;99.90
48836;DHT22;62581;47.342;7.908;2022-09-30T01:17:48;10.60;99.90
48836;DHT22;62581;47.342;7.908;2022-09-30T01:23:08;10.70;99.90
48836;DHT22;62581;47.342;7.908;2022-09-30T01:31:10;10.60;99.90
48836;DHT22;62581;47.342;7.908;2022-09-30T01:33:43;10.60;99.90
48836;DHT22;62581;47.342;7.908;2022-09-30T01:36:16;10.60;99.90
48836;DHT22;62581;47.342;7.908;2022-09-30T01:38:46;10.60;99.90
48836;DHT22;62581;47.342;7.908;2022-09-30T01:41:16;10.60;99.90
48836;DHT22;62581;47.342;7.908;2022-09-30T01:43:45;10.60;99.90
48836;DHT22;62581;47.342;7.908;2022-09-30T01:46:20;10.70;99.90
48836;DHT22;62581;47.342;7.908;2022-09-30T01:48:52;10.70;99.90
48836;DHT22;62581;47.342;7.908;2022-09-30T01:51:23;10.70;99.90
48836;DHT22;62581;47.342;7.908;2022-09-30T01:53:53;10.70;99.90
48836;DHT22;62581;47.342;7.908;2022-09-30T01:56:24;10.80;99.90
48836;DHT22;62581;47.342;7.908;2022-09-30T01:58:54;10.80;99.90
48836;DHT22;62581;47.342;7.908;2022-09-30T02:01:24;10.80;99.90
48836;DHT22;62581;47.342;7.908;2022-09-30T02:03:52;10.80;99.90
48836;DHT22;62581;47.342;7.908;2022-09-30T02:06:22;10.80;99.90
48836;DHT22;62581;47.342;7.908;2022-09-30T02:08:52;10.80;99.90
48836;DHT22;62581;47.342;7.908;2022-09-30T02:11:21;10.80;99.90
48836;DHT22;62581;47.342;7.908;2022-09-30T02:13:50;10.80;99.90
48836;DHT22;62581;47.342;7.908;2022-09-30T02:16:20;10.90;99.90
48836;DHT22;62581;47.342;7.908;2022-09-30T02:18:49;10.90;99.90
48836;DHT22;62581;47.342;7.908;2022-09-30T02:21:18;10.90;99.90
48836;DHT22;62581;47.342;7.908;2022-09-30T02:23:46;10.90;99.90
48836;DHT22;62581;47.342;7.908;2022-09-30T02:26:16;10.80;99.90
48836;DHT22;62581;47.342;7.908;2022-09-30T02:28:44;10.80;99.90
48836;DHT22;62581;47.342;7.908;2022-09-30T02:31:12;10.80;99.90
48836;DHT22;62581;47.342;7.908;2022-09-30T02:33:40;10.80;99.90
48836;DHT22;62581;47.342;7.908;2022-09-30T02:36:09;10.70;99.90
48836;DHT22;62581;47.342;7.908;2022-09-30T02:38:40;10.80;99.90
48836;DHT22;62581;47.342;7.908;2022-09-30T02:41:08;10.80;99.90
48836;DHT22;62581;47.342;7.908;2022-09-30T02:43:35;10.80;99.90
48836;DHT22;62581;47.342;7.908;2022-09-30T02:46:07;10.80;99.90
48836;DHT22;62581;47.342;7.908;2022-09-30T02:48:37;10.80;99.90
48836;DHT22;62581;47.342;7.908;2022-09-30T02:51:10;10.80;99.90
48836;DHT22;62581;47.342;7.908;2022-09-30T02:53:41;10.80;99.90
48836;DHT22;62581;47.342;7.908;2022-09-30T02:56:13;10.90;99.90
48836;DHT22;62581;47.342;7.908;2022-09-30T02:58:42;10.90;99.90
48836;DHT22;62581;47.342;7.908;2022-09-30T03:01:11;10.90;99.90
48836;DHT22;62581;47.342;7.908;2022-09-30T03:03:39;10.80;99.90
48836;DHT22;62581;47.342;7.908;2022-09-30T03:06:09;10.80;99.90
48836;DHT22;62581;47.342;7.908;2022-09-30T03:08:36;10.90;99.90
48836;DHT22;62581;47.342;7.908;2022-09-30T03:11:03;10.90;99.90
48836;DHT22;62581;47.342;7.908;2022-09-30T03:13:40;10.90;99.90
48836;DHT22;62581;47.342;7.908;2022-09-30T03:16:13;10.90;99.90
48836;DHT22;62581;47.342;7.908;2022-09-30T03:18:45;10.90;99.90
48836;DHT22;62581;47.342;7.908;2022-09-30T03:21:19;10.90;99.90
48836;DHT22;62581;47.342;7.908;2022-09-30T03:23:53;10.90;99.90
48836;DHT22;62581;47.342;7.908;2022-09-30T03:26:25;10.90;99.90
48836;DHT22;62581;47.342;7.908;2022-09-30T03:28:57;10.90;99.90
48836;DHT22;62581;47.342;7.908;2022-09-30T03:31:31;10.90;99.90
48836;DHT22;62581;47.342;7.908;2022-09-30T03:34:02;10.90;99.90
48836;DHT22;62581;47.342;7.908;2022-09-30T03:36:33;10.90;99.90
48836;DHT22;62581;47.342;7.908;2022-09-30T03:39:02;11.00;99.90
48836;DHT22;62581;47.342;7.908;2022-09-30T03:41:32;11.00;99.90
48836;DHT22;62581;47.342;7.908;2022-09-30T03:44:00;11.00;99.90
48836;DHT22;62581;47.342;7.908;2022-09-30T03:46:32;11.00;99.90
48836;DHT22;62581;47.342;7.908;2022-09-30T03:49:00;11.00;99.90
48836;DHT22;62581;47.342;7.908;2022-09-30T03:51:28;11.00;99.90
48836;DHT22;62581;47.342;7.908;2022-09-30T03:53:57;11.00;99.90
48836;DHT22;62581;47.342;7.908;2022-09-30T03:56:24;11.00;99.90
48836;DHT22;62581;47.342;7.908;2022-09-30T03:58:51;11.00;99.90
48836;DHT22;62581;47.342;7.908;2022-09-30T04:01:18;11.00;99.90
48836;DHT22;62581;47.342;7.908;2022-09-30T04:03:45;11.00;99.90
48836;DHT22;62581;47.342;7.908;2022-09-30T04:06:13;11.00;99.90
48836;DHT22;62581;47.342;7.908;2022-09-30T04:08:39;11.00;99.90
48836;DHT22;62581;47.342;7.908;2022-09-30T04:11:08;11.00;99.90
48836;DHT22;62581;47.342;7.908;2022-09-30T04:13:35;11.00;99.90
48836;DHT22;62581;47.342;7.908;2022-09-30T04:16:01;11.00;99.90
48836;DHT22;62581;47.342;7.908;2022-09-30T04:18:28;11.00;99.90
48836;DHT22;62581;47.342;7.908;2022-09-30T04:20:55;11.00;99.90
48836;DHT22;62581;47.342;7.908;2022-09-30T04:23:22;11.00;99.90
48836;DHT22;62581;47.342;7.908;2022-09-30T04:25:52;11.00;99.90
48836;DHT22;62581;47.342;7.908;2022-09-30T04:28:20;11.00;99.90
48836;DHT22;62581;47.342;7.908;2022-09-30T04:30:47;11.00;99.90
48836;DHT22;62581;47.342;7.908;2022-09-30T04:33:14;11.00;99.90
48836;DHT22;62581;47.342;7.908;2022-09-30T04:35:40;11.00;99.90
48836;DHT22;62581;47.342;7.908;2022-09-30T04:38:07;11.00;99.90
48836;DHT22;62581;47.342;7.908;2022-09-30T04:40:34;11.00;99.90
48836;DHT22;62581;47.342;7.908;2022-09-30T04:43:01;11.00;99.90
48836;DHT22;62581;47.342;7.908;2022-09-30T04:45:30;11.00;99.90
48836;DHT22;62581;47.342;7.908;2022-09-30T04:47:56;11.10;99.90
48836;DHT22;62581;47.342;7.908;2022-09-30T04:50:23;11.00;99.90
48836;DHT22;62581;47.342;7.908;2022-09-30T04:52:50;11.00;99.90
48836;DHT22;62581;47.342;7.908;2022-09-30T04:55:17;11.00;99.90
48836;DHT22;62581;47.342;7.908;2022-09-30T04:57:43;11.00;99.90
48836;DHT22;62581;47.342;7.908;2022-09-30T05:00:11;11.00;99.90
48836;DHT22;62581;47.342;7.908;2022-09-30T05:02:40;11.00;99.90
48836;DHT22;62581;47.342;7.908;2022-09-30T05:05:08;11.00;99.90
48836;DHT22;62581;47.342;7.908;2022-09-30T05:07:35;11.00;99.90
48836;DHT22;62581;47.342;7.908;2022-09-30T05:10:01;11.00;99.90
48836;DHT22;62581;47.342;7.908;2022-09-30T05:12:28;11.00;99.90
48836;DHT22;62581;47.342;7.908;2022-09-30T05:14:56;11.00;99.90
48836;DHT22;62581;47.342;7.908;2022-09-30T05:17:23;11.00;99.90
48836;DHT22;62581;47.342;7.908;2022-09-30T05:19:51;11.10;99.90
48836;DHT22;62581;47.342;7.908;2022-09-30T05:22:17;11.10;99.90
48836;DHT22;62581;47.342;7.908;2022-09-30T05:24:44;11.10;99.90
48836;DHT22;62581;47.342;7.908;2022-09-30T05:27:11;11.10;99.90
48836;DHT22;62581;47.342;7.908;2022-09-30T05:29:38;11.10;99.90
48836;DHT22;62581;47.342;7.908;2022-09-30T05:32:04;11.10;99.90
48836;DHT22;62581;47.342;7.908;2022-09-30T05:34:34;11.10;99.90
48836;DHT22;62581;47.342;7.908;2022-09-30T05:37:02;11.10;99.90
48836;DHT22;62581;47.342;7.908;2022-09-30T05:39:29;11.10;99.90
48836;DHT22;62581;47.342;7.908;2022-09-30T05:41:56;11.20;99.90
48836;DHT22;62581;47.342;7.908;2022-09-30T05:44:23;11.20;99.90
48836;DHT22;62581;47.342;7.908;2022-09-30T05:46:50;11.20;99.90
48836;DHT22;62581;47.342;7.908;2022-09-30T05:49:16;11.20;99.90
48836;DHT22;62581;47.342;7.908;2022-09-30T05:51:43;11.20;99.90
48836;DHT22;62581;47.342;7.908;2022-09-30T05:54:12;11.20;99.90
48836;DHT22;62581;47.342;7.908;2022-09-30T05:56:38;11.20;99.90
48836;DHT22;62581;47.342;7.908;2022-09-30T05:59:05;11.20;99.90
48836;DHT22;62581;47.342;7.908;2022-09-30T06:01:32;11.30;99.90
48836;DHT22;62581;47.342;7.908;2022-09-30T06:03:59;11.30;99.90
48836;DHT22;62581;47.342;7.908;2022-09-30T06:06:26;11.30;99.90
48836;DHT22;62581;47.342;7.908;2022-09-30T06:08:53;11.30;99.90
48836;DHT22;62581;47.342;7.908;2022-09-30T06:11:21;11.30;99.90
48836;DHT22;62581;47.342;7.908;2022-09-30T06:13:49;11.30;99.90
48836;DHT22;62581;47.342;7.908;2022-09-30T06:16:17;11.40;99.90
48836;DHT22;62581;47.342;7.908;2022-09-30T06:18:44;11.40;99.90
48836;DHT22;62581;47.342;7.908;2022-09-30T06:21:12;11.50;99.90
48836;DHT22;62581;47.342;7.908;2022-09-30T06:23:39;11.50;99.90
48836;DHT22;62581;47.342;7.908;2022-09-30T06:26:08;11.50;99.90
48836;DHT22;62581;47.342;7.908;2022-09-30T06:28:37;11.60;99.90
48836;DHT22;62581;47.342;7.908;2022-09-30T06:31:04;11.60;99.90
48836;DHT22;62581;47.342;7.908;2022-09-30T06:33:31;11.60;99.90
48836;DHT22;62581;47.342;7.908;2022-09-30T06:35:58;11.60;99.90
48836;DHT22;62581;47.342;7.908;2022-09-30T06:38:28;11.70;99.90
48836;DHT22;62581;47.342;7.908;2022-09-30T06:40:57;11.70;99.90
48836;DHT22;62581;47.342;7.908;2022-09-30T06:43:24;11.80;99.90
48836;DHT22;62581;47.342;7.908;2022-09-30T06:45:52;11.90;99.90
48836;DHT22;62581;47.342;7.908;2022-09-30T06:48:19;11.90;99.90
48836;DHT22;62581;47.342;7.908;2022-09-30T06:50:47;12.00;99.90
48836;DHT22;62581;47.342;7.908;2022-09-30T06:53:14;12.00;99.90
48836;DHT22;62581;47.342;7.908;2022-09-30T06:55:40;12.10;99.90
48836;DHT22;62581;47.342;7.908;2022-09-30T06:58:08;12.10;99.90
48836;DHT22;62581;47.342;7.908;2022-09-30T07:00:38;12.20;99.90
48836;DHT22;62581;47.342;7.908;2022-09-30T07:03:07;12.30;99.90
48836;DHT22;62581;47.342;7.908;2022-09-30T07:05:42;12.30;99.90
48836;DHT22;62581;47.342;7.908;2022-09-30T07:08:09;12.40;99.90
48836;DHT22;62581;47.342;7.908;2022-09-30T07:10:37;12.60;99.90
48836;DHT22;62581;47.342;7.908;2022-09-30T07:13:04;12.70;99.90
48836;DHT22;62581;47.342;7.908;2022-09-30T07:15:31;12.80;99.90
48836;DHT22;62581;47.342;7.908;2022-09-30T07:17:58;12.90;99.90
48836;DHT22;62581;47.342;7.908;2022-09-30T07:20:27;13.00;99.90
48836;DHT22;62581;47.342;7.908;2022-09-30T07:22:54;13.20;99.90
48836;DHT22;62581;47.342;7.908;2022-09-30T07:25:22;13.30;99.90
48836;DHT22;62581;47.342;7.908;2022-09-30T07:27:49;13.40;99.90
48836;DHT22;62581;47.342;7.908;2022-09-30T07:30:16;13.50;99.90
48836;DHT22;62581;47.342;7.908;2022-09-30T07:32:43;13.60;99.90
48836;DHT22;62581;47.342;7.908;2022-09-30T07:35:10;13.80;99.90
48836;DHT22;62581;47.342;7.908;2022-09-30T07:37:38;13.90;99.90
48836;DHT22;62581;47.342;7.908;2022-09-30T07:40:05;14.10;99.90
48836;DHT22;62581;47.342;7.908;2022-09-30T07:42:35;14.20;99.90
48836;DHT22;62581;47.342;7.908;2022-09-30T07:45:02;14.30;99.90
48836;DHT22;62581;47.342;7.908;2022-09-30T07:47:29;14.40;99.90
48836;DHT22;62581;47.342;7.908;2022-09-30T07:49:56;14.50;99.90
48836;DHT22;62581;47.342;7.908;2022-09-30T07:52:23;14.60;99.90
48836;DHT22;62581;47.342;7.908;2022-09-30T07:54:51;14.60;99.90
48836;DHT22;62581;47.342;7.908;2022-09-30T07:57:17;14.60;99.90
48836;DHT22;62581;47.342;7.908;2022-09-30T07:59:45;14.60;99.90
48836;DHT22;62581;47.342;7.908;2022-09-30T08:02:13;14.60;99.90
48836;DHT22;62581;47.342;7.908;2022-09-30T08:04:40;14.50;99.90
48836;DHT22;62581;47.342;7.908;2022-09-30T08:07:07;14.50;99.90
48836;DHT22;62581;47.342;7.908;2022-09-30T08:09:34;14.60;99.90
48836;DHT22;62581;47.342;7.908;2022-09-30T08:12:02;14.70;99.90
48836;DHT22;62581;47.342;7.908;2022-09-30T08:14:30;14.70;99.90
48836;DHT22;62581;47.342;7.908;2022-09-30T08:16:57;14.80;99.90
48836;DHT22;62581;47.342;7.908;2022-09-30T08:19:25;14.80;99.90
48836;DHT22;62581;47.342;7.908;2022-09-30T08:21:52;14.90;99.90
48836;DHT22;62581;47.342;7.908;2022-09-30T08:24:19;14.80;99.90
48836;DHT22;62581;47.342;7.908;2022-09-30T08:26:46;14.80;99.90
48836;DHT22;62581;47.342;7.908;2022-09-30T08:29:14;14.70;99.90
48836;DHT22;62581;47.342;7.908;2022-09-30T08:31:41;14.60;99.90
48836;DHT22;62581;47.342;7.908;2022-09-30T08:34:07;14.50;99.90
48836;DHT22;62581;47.342;7.908;2022-09-30T08:36:34;14.40;99.90
48836;DHT22;62581;47.342;7.908;2022-09-30T08:39:01;14.40;99.90
48836;DHT22;62581;47.342;7.908;2022-09-30T08:44:19;14.50;99.90
48836;DHT22;62581;47.342;7.908;2022-09-30T08:46:50;14.60;99.90
48836;DHT22;62581;47.342;7.908;2022-09-30T08:49:27;14.60;99.90
48836;DHT22;62581;47.342;7.908;2022-09-30T08:51:55;14.50;99.90
48836;DHT22;62581;47.342;7.908;2022-09-30T08:54:23;14.50;99.90
48836;DHT22;62581;47.342;7.908;2022-09-30T08:56:51;14.60;99.90
48836;DHT22;62581;47.342;7.908;2022-09-30T09:02:08;14.60;99.90
48836;DHT22;62581;47.342;7.908;2022-09-30T09:04:40;14.70;99.90
48836;DHT22;62581;47.342;7.908;2022-09-30T09:07:07;14.70;99.90
48836;DHT22;62581;47.342;7.908;2022-09-30T09:09:39;14.80;99.90
48836;DHT22;62581;47.342;7.908;2022-09-30T09:12:26;14.80;99.90
48836;DHT22;62581;47.342;7.908;2022-09-30T09:14:59;14.80;99.90
48836;DHT22;62581;47.342;7.908;2022-09-30T09:17:38;15.00;99.90
48836;DHT22;62581;47.342;7.908;2022-09-30T09:20:10;15.10;99.90
48836;DHT22;62581;47.342;7.908;2022-09-30T09:22:38;15.30;99.90
48836;DHT22;62581;47.342;7.908;2022-09-30T09:25:08;15.50;99.90
48836;DHT22;62581;47.342;7.908;2022-09-30T09:27:39;15.60;99.90
48836;DHT22;62581;47.342;7.908;2022-09-30T09:30:07;15.70;99.90
48836;DHT22;62581;47.342;7.908;2022-09-30T09:32:36;15.80;99.90
48836;DHT22;62581;47.342;7.908;2022-09-30T09:35:06;15.80;99.90
48836;DHT22;62581;47.342;7.908;2022-09-30T09:37:39;15.60;99.90
48836;DHT22;62581;47.342;7.908;2022-09-30T09:40:26;15.40;99.90
48836;DHT22;62581;47.342;7.908;2022-09-30T09:43:03;15.20;99.90
48836;DHT22;62581;47.342;7.908;2022-09-30T09:45:34;15.30;99.90
48836;DHT22;62581;47.342;7.908;2022-09-30T09:48:07;15.50;99.90
48836;DHT22;62581;47.342;7.908;2022-09-30T09:50:38;15.60;99.90
48836;DHT22;62581;47.342;7.908;2022-09-30T09:55:53;16.00;99.90
48836;DHT22;62581;47.342;7.908;2022-09-30T09:58:21;16.30;99.90
48836;DHT22;62581;47.342;7.908;2022-09-30T10:00:48;16.70;99.90
48836;DHT22;62581;47.342;7.908;2022-09-30T10:03:30;17.00;99.90
48836;DHT22;62581;47.342;7.908;2022-09-30T10:06:00;17.30;99.90
48836;DHT22;62581;47.342;7.908;2022-09-30T10:08:27;17.50;99.90
48836;DHT22;62581;47.342;7.908;2022-09-30T10:10:57;17.70;99.90
48836;DHT22;62581;47.342;7.908;2022-09-30T10:13:24;17.80;99.90
48836;DHT22;62581;47.342;7.908;2022-09-30T10:15:52;17.80;99.90
48836;DHT22;62581;47.342;7.908;2022-09-30T10:18:22;17.80;99.90
48836;DHT22;62581;47.342;7.908;2022-09-30T10:20:52;17.90;99.90
48836;DHT22;62581;47.342;7.908;2022-09-30T10:23:19;18.00;99.90
48836;DHT22;62581;47.342;7.908;2022-09-30T10:25:54;17.90;99.90
48836;DHT22;62581;47.342;7.908;2022-09-30T10:28:22;18.00;99.90
48836;DHT22;62581;47.342;7.908;2022-09-30T10:30:50;18.10;99.90
48836;DHT22;62581;47.342;7.908;2022-09-30T10:33:22;18.30;99.90
48836;DHT22;62581;47.342;7.908;2022-09-30T10:35:54;18.50;99.90
48836;DHT22;62581;47.342;7.908;2022-09-30T10:38:21;18.40;99.90
48836;DHT22;62581;47.342;7.908;2022-09-30T10:40:49;18.30;99.90
48836;DHT22;62581;47.342;7.908;2022-09-30T10:43:18;18.20;99.90
48836;DHT22;62581;47.342;7.908;2022-09-30T10:45:44;18.10;99.90
48836;DHT22;62581;47.342;7.908;2022-09-30T10:48:13;18.00;99.90
48836;DHT22;62581;47.342;7.908;2022-09-30T10:50:47;17.80;99.90
48836;DHT22;62581;47.342;7.908;2022-09-30T10:53:17;17.70;99.90
48836;DHT22;62581;47.342;7.908;2022-09-30T10:55:46;17.60;99.90
48836;DHT22;62581;47.342;7.908;2022-09-30T10:58:20;17.70;99.90
48836;DHT22;62581;47.342;7.908;2022-09-30T11:00:48;17.60;99.90
48836;DHT22;62581;47.342;7.908;2022-09-30T11:03:15;17.20;99.90
48836;DHT22;62581;47.342;7.908;2022-09-30T11:05:43;16.90;99.90
48836;DHT22;62581;47.342;7.908;2022-09-30T11:08:12;16.50;99.90
48836;DHT22;62581;47.342;7.908;2022-09-30T11:10:44;16.40;99.90
48836;DHT22;62581;47.342;7.908;2022-09-30T11:13:12;16.70;99.90
48836;DHT22;62581;47.342;7.908;2022-09-30T11:15:44;16.80;99.90
48836;DHT22;62581;47.342;7.908;2022-09-30T11:18:16;17.20;99.90
48836;DHT22;62581;47.342;7.908;2022-09-30T11:20:44;17.50;99.90
48836;DHT22;62581;47.342;7.908;2022-09-30T11:23:14;17.50;99.90
48836;DHT22;62581;47.342;7.908;2022-09-30T11:25:46;17.70;99.90
48836;DHT22;62581;47.342;7.908;2022-09-30T11:28:20;17.80;99.90
48836;DHT22;62581;47.342;7.908;2022-09-30T11:30:51;18.10;99.90
48836;DHT22;62581;47.342;7.908;2022-09-30T11:33:24;18.20;99.90
48836;DHT22;62581;47.342;7.908;2022-09-30T11:35:53;18.00;99.90
48836;DHT22;62581;47.342;7.908;2022-09-30T11:38:26;18.10;99.90
48836;DHT22;62581;47.342;7.908;2022-09-30T11:40:57;18.40;99.90
48836;DHT22;62581;47.342;7.908;2022-09-30T11:43:30;18.00;99.90
48836;DHT22;62581;47.342;7.908;2022-09-30T11:46:07;17.30;99.90
48836;DHT22;62581;47.342;7.908;2022-09-30T11:48:38;17.40;99.90
48836;DHT22;62581;47.342;7.908;2022-09-30T11:51:13;17.80;99.90
48836;DHT22;62581;47.342;7.908;2022-09-30T11:53:46;18.10;99.90
48836;DHT22;62581;47.342;7.908;2022-09-30T11:56:19;18.20;99.90
48836;DHT22;62581;47.342;7.908;2022-09-30T11:58:48;18.60;99.90
48836;DHT22;62581;47.342;7.908;2022-09-30T12:01:17;18.80;99.90
48836;DHT22;62581;47.342;7.908;2022-09-30T12:03:48;18.90;99.90
48836;DHT22;62581;47.342;7.908;2022-09-30T12:06:23;19.00;99.90
48836;DHT22;62581;47.342;7.908;2022-09-30T12:08:52;19.30;99.90
48836;DHT22;62581;47.342;7.908;2022-09-30T12:11:28;19.60;99.90
48836;DHT22;62581;47.342;7.908;2022-09-30T12:13:58;19.80;99.90
48836;DHT22;62581;47.342;7.908;2022-09-30T12:16:27;20.00;99.90
48836;DHT22;62581;47.342;7.908;2022-09-30T12:18:56;20.10;99.90
48836;DHT22;62581;47.342;7.908;2022-09-30T12:21:24;20.10;99.90
48836;DHT22;62581;47.342;7.908;2022-09-30T12:23:53;20.00;99.90
48836;DHT22;62581;47.342;7.908;2022-09-30T12:26:23;19.80;99.90
48836;DHT22;62581;47.342;7.908;2022-09-30T12:28:52;19.70;99.90
48836;DHT22;62581;47.342;7.908;2022-09-30T12:34:27;19.50;99.90
48836;DHT22;62581;47.342;7.908;2022-09-30T12:37:00;19.50;99.90
48836;DHT22;62581;47.342;7.908;2022-09-30T12:39:43;19.60;99.90
48836;DHT22;62581;47.342;7.908;2022-09-30T12:45:05;20.10;99.90
48836;DHT22;62581;47.342;7.908;2022-09-30T12:47:36;20.50;99.90
48836;DHT22;62581;47.342;7.908;2022-09-30T12:50:10;20.80;99.90
48836;DHT22;62581;47.342;7.908;2022-09-30T12:52:39;21.10;99.90
48836;DHT22;62581;47.342;7.908;2022-09-30T12:55:20;21.30;99.90
48836;DHT22;62581;47.342;7.908;2022-09-30T12:57:48;21.30;99.90
48836;DHT22;62581;47.342;7.908;2022-09-30T13:00:17;21.10;99.90
48836;DHT22;62581;47.342;7.908;2022-09-30T13:02:46;20.80;99.90
48836;DHT22;62581;47.342;7.908;2022-09-30T13:08:09;20.40;99.90
48836;DHT22;62581;47.342;7.908;2022-09-30T13:10:50;20.20;99.90
48836;DHT22;62581;47.342;7.908;2022-09-30T13:13:20;20.00;99.90
48836;DHT22;62581;47.342;7.908;2022-09-30T13:15:50;19.80;99.90
48836;DHT22;62581;47.342;7.908;2022-09-30T13:21:24;19.40;99.90
48836;DHT22;62581;47.342;7.908;2022-09-30T13:23:52;19.30;99.90
48836;DHT22;62581;47.342;7.908;2022-09-30T13:26:35;19.20;99.90
48836;DHT22;62581;47.342;7.908;2022-09-30T13:32:05;19.90;99.90
48836;DHT22;62581;47.342;7.908;2022-09-30T13:34:46;21.00;99.90
48836;DHT22;62581;47.342;7.908;2022-09-30T13:37:28;22.40;99.90
48836;DHT22;62581;47.342;7.908;2022-09-30T13:39:56;22.60;98.50
48836;DHT22;62581;47.342;7.908;2022-09-30T13:42:24;22.30;98.80
48836;DHT22;62581;47.342;7.908;2022-09-30T13:44:56;22.00;98.70
48836;DHT22;62581;47.342;7.908;2022-09-30T13:47:26;20.80;99.90
48836;DHT22;62581;47.342;7.908;2022-09-30T13:49:56;20.30;99.90
48836;DHT22;62581;47.342;7.908;2022-09-30T13:52:24;19.70;99.90
48836;DHT22;62581;47.342;7.908;2022-09-30T13:54:52;19.00;99.90
48836;DHT22;62581;47.342;7.908;2022-09-30T13:57:22;18.60;99.90
48836;DHT22;62581;47.342;7.908;2022-09-30T13:59:59;18.20;99.90
48836;DHT22;62581;47.342;7.908;2022-09-30T14:02:37;17.80;99.90
48836;DHT22;62581;47.342;7.908;2022-09-30T14:07:56;17.50;99.90
48836;DHT22;62581;47.342;7.908;2022-09-30T14:10:33;17.40;99.90
48836;DHT22;62581;47.342;7.908;2022-09-30T14:13:07;17.30;99.90
48836;DHT22;62581;47.342;7.908;2022-09-30T14:15:48;17.30;99.90
48836;DHT22;62581;47.342;7.908;2022-09-30T14:18:26;17.10;99.90
48836;DHT22;62581;47.342;7.908;2022-09-30T14:23:42;16.80;99.90
48836;DHT22;62581;47.342;7.908;2022-09-30T14:26:13;16.90;99.90
48836;DHT22;62581;47.342;7.908;2022-09-30T14:28:44;17.00;99.90
48836;DHT22;62581;47.342;7.908;2022-09-30T14:31:13;17.00;99.90
48836;DHT22;62581;47.342;7.908;2022-09-30T14:33:42;17.00;99.90
48836;DHT22;62581;47.342;7.908;2022-09-30T14:36:13;16.90;99.90
48836;DHT22;62581;47.342;7.908;2022-09-30T14:38:42;16.80;99.90
48836;DHT22;62581;47.342;7.908;2022-09-30T14:41:13;16.70;99.90
48836;DHT22;62581;47.342;7.908;2022-09-30T14:43:41;16.70;99.90
48836;DHT22;62581;47.342;7.908;2022-09-30T14:46:13;16.70;99.90
48836;DHT22;62581;47.342;7.908;2022-09-30T14:48:43;16.70;99.90
48836;DHT22;62581;47.342;7.908;2022-09-30T14:51:12;16.60;99.90
48836;DHT22;62581;47.342;7.908;2022-09-30T14:53:40;16.50;99.90
48836;DHT22;62581;47.342;7.908;2022-09-30T14:56:17;16.40;99.90
48836;DHT22;62581;47.342;7.908;2022-09-30T14:58:46;16.10;99.90
48836;DHT22;62581;47.342;7.908;2022-09-30T15:01:17;16.00;99.90
48836;DHT22;62581;47.342;7.908;2022-09-30T15:03:47;15.90;99.90
48836;DHT22;62581;47.342;7.908;2022-09-30T15:06:16;15.80;99.90
48836;DHT22;62581;47.342;7.908;2022-09-30T15:08:43;15.80;99.90
48836;DHT22;62581;47.342;7.908;2022-09-30T15:11:15;15.70;99.90
48836;DHT22;62581;47.342;7.908;2022-09-30T15:13:42;15.70;99.90
48836;DHT22;62581;47.342;7.908;2022-09-30T15:16:20;15.70;99.90
48836;DHT22;62581;47.342;7.908;2022-09-30T15:18:49;15.70;99.90
48836;DHT22;62581;47.342;7.908;2022-09-30T15:21:15;15.70;99.90
48836;DHT22;62581;47.342;7.908;2022-09-30T15:23:43;15.80;99.90
48836;DHT22;62581;47.342;7.908;2022-09-30T15:26:11;15.70;99.90
48836;DHT22;62581;47.342;7.908;2022-09-30T15:28:38;15.70;99.90
48836;DHT22;62581;47.342;7.908;2022-09-30T15:31:05;15.70;99.90
48836;DHT22;62581;47.342;7.908;2022-09-30T15:33:33;15.70;99.90
48836;DHT22;62581;47.342;7.908;2022-09-30T15:36:02;15.80;99.90
48836;DHT22;62581;47.342;7.908;2022-09-30T15:38:30;15.70;99.90
48836;DHT22;62581;47.342;7.908;2022-09-30T15:40:58;15.60;99.90
48836;DHT22;62581;47.342;7.908;2022-09-30T15:43:31;15.60;99.90
48836;DHT22;62581;47.342;7.908;2022-09-30T15:46:16;15.40;99.90
48836;DHT22;62581;47.342;7.908;2022-09-30T15:48:43;15.40;99.90
48836;DHT22;62581;47.342;7.908;2022-09-30T15:51:29;15.40;99.90
48836;DHT22;62581;47.342;7.908;2022-09-30T15:53:57;15.40;99.90
48836;DHT22;62581;47.342;7.908;2022-09-30T15:56:26;15.40;99.90
48836;DHT22;62581;47.342;7.908;2022-09-30T15:58:57;15.40;99.90
48836;DHT22;62581;47.342;7.908;2022-09-30T16:01:25;15.40;99.90
48836;DHT22;62581;47.342;7.908;2022-09-30T16:03:53;15.40;99.90
48836;DHT22;62581;47.342;7.908;2022-09-30T16:06:21;15.40;99.90
48836;DHT22;62581;47.342;7.908;2022-09-30T16:08:52;15.40;99.90
48836;DHT22;62581;47.342;7.908;2022-09-30T16:11:24;15.30;99.90
48836;DHT22;62581;47.342;7.908;2022-09-30T16:13:51;15.30;99.90
48836;DHT22;62581;47.342;7.908;2022-09-30T16:16:19;15.20;99.90
48836;DHT22;62581;47.342;7.908;2022-09-30T16:18:47;15.20;99.90
48836;DHT22;62581;47.342;7.908;2022-09-30T16:21:28;15.20;99.90